Overview Statistics Trail Chart Weather Telemetry Raw packets
 

This is the latest recevied weather packets stored in our database for station/object N3LF. If no packets are shown the sender has not sent any weather packets the latest 10 day(s).

<< 61 62 63 64 65 66 67 >>
Time Temp. Humidity Pressure Rain* Wind** Luminosity Snow
1788199157 34.44° C 58% 1022.2 hPa 0 mm - 528 W/m² -
1788198854 33.89° C 58% 1022.3 hPa 0 mm - 748 W/m² -
1788198550 33.33° C 59% 1022.4 hPa 0 mm - 465 W/m² -
1788198245 34.44° C 56% 1022.4 hPa 0 mm - 277 W/m² -
1788197944 33.89° C 59% 1022.4 hPa 0 mm - 741 W/m² -
1788197643 33.33° C 58% 1022.4 hPa 0 mm - 717 W/m² -
1788197339 32.78° C 64% 1022.6 hPa 0 mm - 157 W/m² -
1788197035 33.89° C 60% 1022.6 hPa 0 mm - 164 W/m² -
1788196729 32.78° C 59% 1022.7 hPa 0 mm - 731 W/m² -
1788196425 33.89° C 59% 1022.7 hPa 0 mm - 736 W/m² -
1788196122 33.89° C 59% 1022.9 hPa 0 mm - 714 W/m² -
1788195818 33.89° C 58% 1022.7 hPa 0 mm - 716 W/m² -
1788195514 33.89° C 58% 1022.8 hPa 0 mm - 719 W/m² -
1788195210 32.22° C 63% 1022.9 hPa 0 mm - 709 W/m² -
1788194906 31.67° C 64% 1023 hPa 0 mm - 700 W/m² -
1788194602 32.78° C 62% 1023.1 hPa 0 mm - 120 W/m² -
1788194298 32.78° C 63% 1022.9 hPa 0 mm - 688 W/m² -
1788193993 33.89° C 59% 1023.1 hPa 0 mm - 415 W/m² -
1788193691 32.78° C 62% 1023 hPa 0 mm - 655 W/m² -
1788193387 32.22° C 64% 1023.1 hPa 0 mm - 633 W/m² -
1788193085 32.78° C 62% 1023.1 hPa 0 mm - 606 W/m² -
1788192782 32.78° C 65% 1023.1 hPa 0 mm - 608 W/m² -
1788192481 33.33° C 61% 1023.1 hPa 0 mm - 602 W/m² -
1788192177 32.78° C 66% 1023 hPa 0 mm - 594 W/m² -
1788191876 32.78° C 63% 1023.2 hPa 0 mm - 584 W/m² -

* Rain latest hour (hover to see other rain measurements)
** Current wind speed in m/s (hover to see current wind gust speed)